createdAt,value
2019-04-16T00:00:46.353Z,17.83
2019-04-16T00:03:55.259Z,19.53
2019-04-16T00:07:17.251Z,19.27
2019-04-16T00:10:38.077Z,17.90
2019-04-16T00:13:44.152Z,18.97
2019-04-16T00:16:48.596Z,24.10
2019-04-16T00:19:53.034Z,21.67
2019-04-16T00:22:59.459Z,19.47
2019-04-16T00:26:03.979Z,21.77
2019-04-16T00:29:08.406Z,17.17
2019-04-16T00:32:14.815Z,19.67
2019-04-16T00:35:19.541Z,20.33
2019-04-16T00:38:23.975Z,19.30
2019-04-16T00:41:28.694Z,23.37
2019-04-16T00:44:33.431Z,18.23
2019-04-16T00:47:37.871Z,19.50
2019-04-16T00:50:42.311Z,20.30
2019-04-16T00:53:46.747Z,23.43
2019-04-16T00:56:51.194Z,17.50
2019-04-16T00:59:56.780Z,23.47
2019-04-16T01:03:01.605Z,19.90
2019-04-16T01:06:07.768Z,18.30
2019-04-16T01:09:12.212Z,21.17
2019-04-16T01:12:17.031Z,20.27
2019-04-16T01:15:21.467Z,19.63
2019-04-16T01:18:25.905Z,19.73
2019-04-16T01:21:30.353Z,21.33
2019-04-16T01:24:35.141Z,21.03
2019-04-16T01:27:41.500Z,20.10
2019-04-16T01:31:07.113Z,22.13
2019-04-16T01:34:15.289Z,19.47
2019-04-16T01:37:25.838Z,21.97
2019-04-16T01:40:34.317Z,21.77
2019-04-16T01:43:38.746Z,20.57
2019-04-16T01:46:43.191Z,23.47
2019-04-16T01:49:47.619Z,21.33
2019-04-16T01:52:58.568Z,22.23
2019-04-16T01:56:03.011Z,18.80
2019-04-16T01:59:07.723Z,20.70
2019-04-16T02:02:14.625Z,22.97
2019-04-16T02:05:20.424Z,21.37
2019-04-16T02:08:24.487Z,22.47
2019-04-16T02:11:28.929Z,21.70
2019-04-16T02:14:33.364Z,25.30
2019-04-16T02:17:37.808Z,21.53
2019-04-16T02:20:42.239Z,20.00
2019-04-16T02:23:48.117Z,23.07
2019-04-16T02:26:54.866Z,20.80
2019-04-16T02:30:02.914Z,21.73
2019-04-16T02:33:05.812Z,21.40
2019-04-16T02:36:10.246Z,19.83
2019-04-16T02:39:14.693Z,20.03
2019-04-16T02:42:19.127Z,22.43
2019-04-16T02:45:24.584Z,20.47
2019-04-16T02:48:29.465Z,21.80
2019-04-16T02:51:39.888Z,23.13
2019-04-16T02:54:42.098Z,22.40
2019-04-16T02:57:48.983Z,23.70
2019-04-16T03:01:11.482Z,23.70
2019-04-16T03:04:17.558Z,23.27
2019-04-16T03:07:22.421Z,25.37
2019-04-16T03:10:26.852Z,20.77
2019-04-16T03:13:31.569Z,24.47
2019-04-16T03:16:50.228Z,24.83
2019-04-16T03:19:58.732Z,23.10
2019-04-16T03:23:06.113Z,28.73
2019-04-16T03:26:09.343Z,20.80
2019-04-16T03:29:14.070Z,24.30
2019-04-16T03:32:18.515Z,24.10
2019-04-16T03:35:26.575Z,26.20
2019-04-16T03:38:29.489Z,27.30
2019-04-16T03:41:34.323Z,23.70
2019-04-16T03:44:38.762Z,25.03
2019-04-16T03:47:43.206Z,26.10
2019-04-16T03:50:47.637Z,24.40
2019-04-16T03:53:52.082Z,23.57
2019-04-16T03:56:56.519Z,24.17
2019-04-16T04:00:01.076Z,27.03
2019-04-16T04:03:05.464Z,25.43
2019-04-16T04:06:10.222Z,23.97
2019-04-16T04:09:14.666Z,24.73
2019-04-16T04:12:19.100Z,23.33
2019-04-16T04:15:26.474Z,25.00
2019-04-16T04:18:29.967Z,24.40
2019-04-16T04:21:34.398Z,24.57
2019-04-16T04:24:38.842Z,24.80
2019-04-16T04:27:46.771Z,24.63
2019-04-16T04:30:49.701Z,26.47
2019-04-16T04:33:54.146Z,26.27
2019-04-16T04:36:59.691Z,28.07
2019-04-16T04:40:05.993Z,24.60
2019-04-16T04:43:10.674Z,28.13
2019-04-16T04:46:15.727Z,24.87
2019-04-16T04:49:20.544Z,24.67
2019-04-16T04:52:27.365Z,23.00
2019-04-16T04:55:31.447Z,26.13
2019-04-16T04:58:36.277Z,23.33
2019-04-16T05:01:42.070Z,26.10
2019-04-16T05:04:54.507Z,23.57
2019-04-16T05:07:59.996Z,25.33
2019-04-16T05:11:05.055Z,28.63
2019-04-16T05:14:09.500Z,25.57
2019-04-16T05:17:14.290Z,24.67
2019-04-16T05:20:19.009Z,33.03
2019-04-16T05:23:25.696Z,27.00
2019-04-16T05:26:29.876Z,26.40
2019-04-16T05:29:34.552Z,27.40
2019-04-16T05:32:38.987Z,26.30
2019-04-16T05:35:43.693Z,29.18
2019-04-16T05:38:48.972Z,27.60
2019-04-16T05:41:53.683Z,27.70
2019-04-16T05:44:58.428Z,28.43
2019-04-16T05:48:02.862Z,25.00
2019-04-16T05:51:07.377Z,26.97
2019-04-16T05:54:19.260Z,33.83
2019-04-16T05:57:27.263Z,32.03
2019-04-16T06:00:38.540Z,36.80
2019-04-16T06:03:43.684Z,33.03
2019-04-16T06:06:48.129Z,33.80
2019-04-16T06:09:52.828Z,29.77
2019-04-16T06:13:09.391Z,35.60
2019-04-16T06:16:17.161Z,32.50
2019-04-16T06:19:43.810Z,33.90
2019-04-16T06:22:47.740Z,30.87
2019-04-16T06:25:56.484Z,34.43
2019-04-16T06:29:02.895Z,31.30
2019-04-16T06:32:27.826Z,29.63
2019-04-16T06:35:43.053Z,33.37
2019-04-16T06:38:44.118Z,36.20
2019-04-16T06:41:59.408Z,32.43
2019-04-16T06:45:07.566Z,29.20
2019-04-16T06:48:14.016Z,29.83
2019-04-16T06:51:36.527Z,30.80
2019-04-16T06:55:03.556Z,25.17
2019-04-16T06:58:06.932Z,30.93
2019-04-16T07:01:22.107Z,32.37
2019-04-16T07:04:41.982Z,27.00
2019-04-16T07:08:04.448Z,27.10
2019-04-16T07:11:10.864Z,26.90
2019-04-16T07:14:16.697Z,26.20
2019-04-16T07:17:21.672Z,26.33
2019-04-16T07:20:26.268Z,27.37
2019-04-16T07:23:31.073Z,27.80
2019-04-16T07:26:38.707Z,27.73
2019-04-16T07:29:46.552Z,30.37
2019-04-16T07:32:52.939Z,31.10
2019-04-16T07:36:04.767Z,33.33
2019-04-16T07:39:30.442Z,31.53
2019-04-16T07:42:51.687Z,32.33
2019-04-16T07:45:53.962Z,28.03
2019-04-16T07:49:17.970Z,35.80
2019-04-16T07:52:42.058Z,29.77
2019-04-16T07:55:49.706Z,29.40
2019-04-16T07:59:00.035Z,29.87
2019-04-16T08:02:01.200Z,27.03
2019-04-16T08:05:09.373Z,28.13
2019-04-16T08:08:14.626Z,26.97
2019-04-16T08:11:19.348Z,32.70
2019-04-16T08:14:23.915Z,28.83
2019-04-16T08:17:28.993Z,32.83
2019-04-16T08:20:34.369Z,29.07
2019-04-16T08:23:40.717Z,26.43
2019-04-16T08:26:45.480Z,29.00
2019-04-16T08:29:50.196Z,27.20
2019-04-16T08:32:54.649Z,30.83
2019-04-16T08:35:59.332Z,27.53
2019-04-16T08:39:06.473Z,27.37
2019-04-16T08:42:12.124Z,28.10
2019-04-16T08:45:16.886Z,28.20
2019-04-16T08:48:21.686Z,29.93
2019-04-16T08:51:30.960Z,31.30
2019-04-16T08:54:33.709Z,29.00
2019-04-16T08:57:38.476Z,28.13
2019-04-16T09:00:46.679Z,26.00
2019-04-16T09:03:51.324Z,36.70
2019-04-16T09:07:09.709Z,26.83
2019-04-16T09:10:16.224Z,28.60
2019-04-16T09:13:15.369Z,27.93
2019-04-16T09:16:20.767Z,29.50
2019-04-16T09:19:26.473Z,25.53
2019-04-16T09:22:31.753Z,31.30
2019-04-16T09:25:38.342Z,30.30
2019-04-16T09:28:44.436Z,36.13
2019-04-16T09:32:04.497Z,26.43
2019-04-16T09:35:17.715Z,28.80
2019-04-16T09:38:27.385Z,27.50
2019-04-16T09:41:33.866Z,27.33
2019-04-16T09:44:39.906Z,29.87
2019-04-16T09:47:44.513Z,28.53
2019-04-16T09:50:49.117Z,25.43
2019-04-16T09:53:53.836Z,26.87
2019-04-16T09:57:00.761Z,29.10
2019-04-16T10:00:09.315Z,27.30
2019-04-16T10:03:33.520Z,31.10
2019-04-16T10:06:38.364Z,32.60
2019-04-16T10:09:42.814Z,29.73
2019-04-16T10:12:47.281Z,30.20
2019-04-16T10:15:51.712Z,27.77
2019-04-16T10:18:56.162Z,27.00
2019-04-16T10:22:00.891Z,24.70
2019-04-16T10:25:08.925Z,27.40
2019-04-16T10:28:15.763Z,28.60
2019-04-16T10:31:21.938Z,26.02
2019-04-16T10:34:26.914Z,30.15
2019-04-16T10:37:31.498Z,26.45
2019-04-16T10:40:37.585Z,24.98
2019-04-16T10:43:45.009Z,25.75
2019-04-16T10:47:07.645Z,29.02
2019-04-16T10:50:12.707Z,23.90
2019-04-16T10:53:24.878Z,21.73
2019-04-16T10:56:47.111Z,20.45
2019-04-16T10:59:55.619Z,24.30
2019-04-16T11:03:04.649Z,25.02
2019-04-16T11:06:10.757Z,25.70
2019-04-16T11:09:15.207Z,28.00
2019-04-16T11:12:19.918Z,27.10
2019-04-16T11:15:26.337Z,26.52
2019-04-16T11:18:31.092Z,28.55
2019-04-16T11:21:35.808Z,24.85
2019-04-16T11:24:40.255Z,25.35
2019-04-16T11:27:44.779Z,25.82
2019-04-16T11:30:56.557Z,29.67
2019-04-16T11:34:01.009Z,26.00
2019-04-16T11:37:08.060Z,28.47
2019-04-16T11:40:11.944Z,27.30
2019-04-16T11:43:16.422Z,31.25
2019-04-16T11:46:21.332Z,28.70
2019-04-16T11:49:25.867Z,22.90
2019-04-16T11:52:30.590Z,24.87
2019-04-16T11:55:35.352Z,23.85
2019-04-16T11:58:46.335Z,22.00
2019-04-16T12:01:55.343Z,21.30
2019-04-16T12:05:07.781Z,22.25
2019-04-16T12:08:14.029Z,20.45
2019-04-16T12:11:20.075Z,18.30
2019-04-16T12:14:43.526Z,15.43
2019-04-16T12:18:05.728Z,17.37
2019-04-16T12:21:17.698Z,22.20
2019-04-16T12:24:42.128Z,22.00
2019-04-16T12:27:54.086Z,23.60
2019-04-16T12:31:03.103Z,20.48
2019-04-16T12:34:22.567Z,17.92
2019-04-16T12:37:45.013Z,19.10
2019-04-16T12:41:00.209Z,17.57
2019-04-16T12:44:25.366Z,21.97
2019-04-16T12:47:34.474Z,21.33
2019-04-16T12:50:46.425Z,25.55
2019-04-16T12:54:07.471Z,20.80
2019-04-16T12:57:16.207Z,19.80
2019-04-16T13:00:27.342Z,21.73
2019-04-16T13:03:42.423Z,24.83
2019-04-16T13:06:48.630Z,23.70
2019-04-16T13:09:54.959Z,21.53
2019-04-16T13:13:01.329Z,20.23
2019-04-16T13:16:19.987Z,22.27
2019-04-16T13:19:31.527Z,21.43
2019-04-16T13:22:50.000Z,23.17
2019-04-16T13:25:56.409Z,20.43
2019-04-16T13:29:02.535Z,20.10
2019-04-16T13:32:07.288Z,19.67
2019-04-16T13:35:11.820Z,20.60
2019-04-16T13:38:18.193Z,22.33
2019-04-16T13:41:26.261Z,19.87
2019-04-16T13:44:46.290Z,23.50
2019-04-16T13:47:55.932Z,21.33
2019-04-16T13:51:00.481Z,23.50
2019-04-16T13:54:15.745Z,22.33
2019-04-16T13:57:24.821Z,23.10
2019-04-16T14:00:36.309Z,23.90
2019-04-16T14:03:39.827Z,23.73
2019-04-16T14:06:46.220Z,23.40
2019-04-16T14:09:51.166Z,23.30
2019-04-16T14:12:55.608Z,21.57
2019-04-16T14:16:00.057Z,20.33
2019-04-16T14:19:06.073Z,21.73
2019-04-16T14:22:11.206Z,25.15
2019-04-16T14:25:16.163Z,21.23
2019-04-16T14:28:20.885Z,19.97
2019-04-16T14:31:27.047Z,23.90
2019-04-16T14:34:36.389Z,22.97
2019-04-16T14:37:41.125Z,19.63
2019-04-16T14:40:45.848Z,19.77
2019-04-16T14:43:51.937Z,20.03
2019-04-16T14:47:00.095Z,20.50
2019-04-16T14:50:03.216Z,21.70
2019-04-16T14:53:07.965Z,17.35
2019-04-16T14:56:14.124Z,16.95
2019-04-16T14:59:30.399Z,18.85
2019-04-16T15:02:43.230Z,19.23
2019-04-16T15:05:55.204Z,21.62
2019-04-16T15:09:19.291Z,20.08
2019-04-16T15:12:25.687Z,17.32
2019-04-16T15:15:31.780Z,16.00
2019-04-16T15:18:37.865Z,24.75
2019-04-16T15:21:58.681Z,19.48
2019-04-16T15:25:21.575Z,17.15
2019-04-16T15:28:26.104Z,18.37
2019-04-16T15:31:36.497Z,19.57
2019-04-16T15:34:43.191Z,17.30
2019-04-16T15:37:49.730Z,18.62
2019-04-16T15:41:12.386Z,17.55
2019-04-16T15:44:22.334Z,19.53
2019-04-16T15:47:23.974Z,20.17
2019-04-16T15:50:36.611Z,20.10
2019-04-16T15:53:55.382Z,18.53
2019-04-16T15:57:17.473Z,15.33
2019-04-16T16:00:23.646Z,18.27
2019-04-16T16:03:36.678Z,20.30
2019-04-16T16:06:43.051Z,19.77
2019-04-16T16:09:59.101Z,21.30
2019-04-16T16:13:04.155Z,18.33
2019-04-16T16:16:10.723Z,16.77
2019-04-16T16:19:14.774Z,20.60
2019-04-16T16:22:19.634Z,20.73
2019-04-16T16:25:24.086Z,16.67
2019-04-16T16:28:28.543Z,19.03
2019-04-16T16:31:35.733Z,16.07
2019-04-16T16:34:39.876Z,18.43
2019-04-16T16:37:44.587Z,17.47
2019-04-16T16:40:49.875Z,20.53
2019-04-16T16:43:54.862Z,18.97
2019-04-16T16:47:06.377Z,15.53
2019-04-16T16:50:13.126Z,17.63
2019-04-16T16:53:21.597Z,15.43
2019-04-16T16:56:28.028Z,16.90
2019-04-16T16:59:36.548Z,16.00
2019-04-16T17:02:45.479Z,15.33
2019-04-16T17:05:50.994Z,14.83
2019-04-16T17:08:55.441Z,15.33
2019-04-16T17:11:59.891Z,14.03
2019-04-16T17:15:08.597Z,14.80
2019-04-16T17:18:12.815Z,12.77
2019-04-16T17:21:17.257Z,14.50
2019-04-16T17:24:21.967Z,13.47
2019-04-16T17:27:26.413Z,15.57
2019-04-16T17:30:31.192Z,15.77
2019-04-16T17:33:36.265Z,12.77
2019-04-16T17:36:41.404Z,11.53
2019-04-16T17:39:50.432Z,10.77
2019-04-16T17:42:56.525Z,15.03
2019-04-16T17:46:05.566Z,13.47
2019-04-16T17:49:11.655Z,17.47
2019-04-16T17:52:26.181Z,14.53
2019-04-16T17:55:32.261Z,15.40
2019-04-16T17:58:38.348Z,16.17
2019-04-16T18:02:00.353Z,16.20
2019-04-16T18:05:23.682Z,16.90
2019-04-16T18:08:46.110Z,17.00
2019-04-16T18:11:57.887Z,14.33
2019-04-16T18:15:07.463Z,15.40
2019-04-16T18:18:24.760Z,16.43
2019-04-16T18:21:47.138Z,17.00
2019-04-16T18:24:53.636Z,15.50
2019-04-16T18:28:04.260Z,16.70
2019-04-16T18:31:13.505Z,14.30
2019-04-16T18:34:20.680Z,15.10
2019-04-16T18:37:48.796Z,16.67
2019-04-16T18:41:01.931Z,15.80
2019-04-16T18:44:06.742Z,17.00
2019-04-16T18:47:18.303Z,14.70
2019-04-16T18:50:27.960Z,13.37
2019-04-16T18:53:30.278Z,13.20
2019-04-16T18:56:34.716Z,12.47
2019-04-16T18:59:39.161Z,11.83
2019-04-16T19:02:43.605Z,14.47
2019-04-16T19:05:48.361Z,15.50
2019-04-16T19:08:53.394Z,15.33
2019-04-16T19:11:57.829Z,15.67
2019-04-16T19:15:02.279Z,14.13
2019-04-16T19:18:18.880Z,15.53
2019-04-16T19:21:12.886Z,15.27
2019-04-16T19:24:17.334Z,15.03
2019-04-16T19:27:22.088Z,15.73
2019-04-16T19:30:26.818Z,15.97
2019-04-16T19:33:37.889Z,15.87
2019-04-16T19:36:37.506Z,16.93
2019-04-16T19:39:43.786Z,13.17
2019-04-16T19:42:48.544Z,13.90
2019-04-16T19:45:53.449Z,13.17
2019-04-16T19:49:00.511Z,13.17
2019-04-16T19:52:04.947Z,12.73
2019-04-16T19:55:12.702Z,14.43
2019-04-16T19:58:16.468Z,13.40
2019-04-16T20:01:21.183Z,14.40
2019-04-16T20:04:25.917Z,14.63
2019-04-16T20:07:32.896Z,13.80
2019-04-16T20:10:36.819Z,14.60
2019-04-16T20:13:41.252Z,16.03
2019-04-16T20:16:45.966Z,14.60
2019-04-16T20:20:02.423Z,16.00
2019-04-16T20:23:06.872Z,15.47
2019-04-16T20:26:11.630Z,16.13
2019-04-16T20:29:16.066Z,17.93
2019-04-16T20:32:20.786Z,15.33
2019-04-16T20:35:25.230Z,15.30
2019-04-16T20:38:30.121Z,15.23
2019-04-16T20:41:34.723Z,15.07
2019-04-16T20:44:39.509Z,14.43
2019-04-16T20:47:44.230Z,13.13
2019-04-16T20:50:52.743Z,13.37
2019-04-16T20:53:55.130Z,17.27
2019-04-16T20:56:59.577Z,13.87
2019-04-16T21:00:10.281Z,13.40
2019-04-16T21:03:21.922Z,12.10
2019-04-16T21:06:20.312Z,13.30
2019-04-16T21:09:26.762Z,13.33
2019-04-16T21:12:31.230Z,14.27
2019-04-16T21:15:35.919Z,13.67
2019-04-16T21:18:40.419Z,14.63
2019-04-16T21:21:44.877Z,11.93
2019-04-16T21:24:49.601Z,12.90
2019-04-16T21:27:55.882Z,12.87
2019-04-16T21:31:05.030Z,12.13
2019-04-16T21:34:24.306Z,12.50
2019-04-16T21:37:27.982Z,11.67
2019-04-16T21:40:32.796Z,12.63
2019-04-16T21:43:39.583Z,13.43
2019-04-16T21:46:43.488Z,13.73
2019-04-16T21:49:47.930Z,13.83
2019-04-16T21:52:55.568Z,13.90
2019-04-16T21:55:58.829Z,14.13
2019-04-16T21:59:05.703Z,14.23
2019-04-16T22:02:13.943Z,14.20
2019-04-16T22:05:18.561Z,15.17
2019-04-16T22:08:23.008Z,13.63
2019-04-16T22:11:27.696Z,16.07
2019-04-16T22:14:32.141Z,13.47
2019-04-16T22:17:36.827Z,14.40
2019-04-16T22:20:41.310Z,15.97
2019-04-16T22:23:50.133Z,15.83
2019-04-16T22:26:52.173Z,15.10
2019-04-16T22:29:56.903Z,14.17
2019-04-16T22:33:05.473Z,16.33
2019-04-16T22:36:07.512Z,17.37
2019-04-16T22:39:31.716Z,18.00
2019-04-16T22:42:43.470Z,15.10
2019-04-16T22:46:08.172Z,15.80
2019-04-16T22:49:12.619Z,15.77
2019-04-16T22:52:17.328Z,16.60
2019-04-16T22:55:24.957Z,16.70
2019-04-16T22:58:29.646Z,18.13
2019-04-16T23:01:37.667Z,19.80
2019-04-16T23:04:42.109Z,17.53
2019-04-16T23:07:46.561Z,16.90
2019-04-16T23:10:52.128Z,17.03
2019-04-16T23:13:57.079Z,16.20
2019-04-16T23:17:01.600Z,16.90
2019-04-16T23:20:07.566Z,19.20
2019-04-16T23:23:12.314Z,17.27
2019-04-16T23:26:16.753Z,19.60
2019-04-16T23:29:21.208Z,20.20
2019-04-16T23:32:28.609Z,18.83
2019-04-16T23:35:32.947Z,17.03
2019-04-16T23:38:37.493Z,20.03
2019-04-16T23:41:42.236Z,21.03
2019-04-16T23:44:48.329Z,18.00
2019-04-16T23:47:54.409Z,18.77
2019-04-16T23:51:06.370Z,19.83
2019-04-16T23:54:15.015Z,17.37
2019-04-16T23:57:24.825Z,18.60
